createdAt,value
2023-11-18T00:00:13.854Z,4.63
2023-11-18T00:02:44.242Z,4.65
2023-11-18T00:05:12.364Z,4.67
2023-11-18T00:07:40.366Z,4.69
2023-11-18T00:10:09.755Z,4.70
2023-11-18T00:12:38.211Z,4.71
2023-11-18T00:15:06.353Z,4.73
2023-11-18T00:17:33.470Z,4.73
2023-11-18T00:20:00.833Z,4.74
2023-11-18T00:22:29.117Z,4.75
2023-11-18T00:24:56.262Z,4.74
2023-11-18T00:27:24.005Z,4.75
2023-11-18T00:29:51.091Z,4.75
2023-11-18T00:32:18.326Z,4.74
2023-11-18T00:34:45.918Z,4.72
2023-11-18T00:37:13.234Z,4.71
2023-11-18T00:39:40.919Z,4.69
2023-11-18T00:42:07.948Z,4.68
2023-11-18T00:44:35.503Z,4.67
2023-11-18T00:47:03.829Z,4.65
2023-11-18T00:49:31.313Z,4.62
2023-11-18T00:51:58.477Z,4.60
2023-11-18T00:54:25.570Z,4.57
2023-11-18T00:56:53.031Z,4.54
2023-11-18T00:59:20.060Z,4.50
2023-11-18T01:01:47.443Z,4.47
2023-11-18T01:04:14.624Z,4.44
2023-11-18T01:06:43.911Z,4.43
2023-11-18T01:09:11.071Z,4.39
2023-11-18T01:11:38.190Z,4.37
2023-11-18T01:14:05.283Z,4.38
2023-11-18T01:16:32.369Z,4.39
2023-11-18T01:19:00.667Z,4.40
2023-11-18T01:21:28.647Z,4.43
2023-11-18T01:23:56.405Z,4.44
2023-11-18T01:26:24.499Z,4.48
2023-11-18T01:28:51.771Z,4.53
2023-11-18T01:31:19.002Z,4.59
2023-11-18T01:33:47.902Z,4.63
2023-11-18T01:36:15.148Z,4.69
2023-11-18T01:38:42.284Z,4.73
2023-11-18T01:41:10.418Z,4.78
2023-11-18T01:43:37.957Z,4.82
2023-11-18T01:46:11.389Z,4.86
2023-11-18T01:48:40.618Z,4.89
2023-11-18T01:51:08.637Z,4.92
2023-11-18T01:53:41.129Z,4.95
2023-11-18T01:56:09.848Z,4.99
2023-11-18T01:58:38.269Z,5.03
2023-11-18T02:01:09.370Z,5.04
2023-11-18T02:03:37.392Z,5.08
2023-11-18T02:06:06.906Z,5.12
2023-11-18T02:08:36.471Z,5.14
2023-11-18T02:11:42.843Z,5.16
2023-11-18T02:14:17.335Z,5.16
2023-11-18T02:16:46.150Z,5.18
2023-11-18T02:19:22.932Z,5.19
2023-11-18T02:21:51.076Z,5.21
2023-11-18T02:24:31.781Z,5.22
2023-11-18T02:26:59.748Z,5.24
2023-11-18T02:29:37.729Z,5.24
2023-11-18T02:32:36.915Z,5.26
2023-11-18T02:35:36.419Z,5.26
2023-11-18T02:38:06.559Z,5.24
2023-11-18T02:40:42.405Z,5.27
2023-11-18T02:43:10.691Z,5.28
2023-11-18T02:45:38.867Z,5.28
2023-11-18T02:48:07.827Z,5.27
2023-11-18T02:50:36.966Z,5.29
2023-11-18T02:53:04.177Z,5.28
2023-11-18T02:55:31.918Z,5.28
2023-11-18T02:57:59.268Z,5.27
2023-11-18T03:00:26.355Z,5.26
2023-11-18T03:02:53.997Z,5.25
2023-11-18T03:05:22.391Z,5.24
2023-11-18T03:07:55.040Z,5.23
2023-11-18T03:10:23.464Z,5.22
2023-11-18T03:12:53.649Z,5.19
2023-11-18T03:15:23.733Z,5.18
2023-11-18T03:17:52.295Z,5.17
2023-11-18T03:20:24.164Z,5.18
2023-11-18T03:22:52.508Z,5.20
2023-11-18T03:25:23.274Z,5.20
2023-11-18T03:27:50.563Z,5.20
2023-11-18T03:30:18.440Z,5.20
2023-11-18T03:32:46.645Z,5.21
2023-11-18T03:35:14.570Z,5.21
2023-11-18T03:37:44.030Z,5.22
2023-11-18T03:40:14.465Z,5.24
2023-11-18T03:42:43.174Z,5.26
2023-11-18T03:45:11.300Z,5.30
2023-11-18T03:47:39.319Z,5.31
2023-11-18T03:50:09.536Z,5.33
2023-11-18T03:52:39.159Z,5.34
2023-11-18T03:55:07.129Z,5.35
2023-11-18T03:57:34.382Z,5.34
2023-11-18T04:00:01.644Z,5.33
2023-11-18T04:02:30.284Z,5.34
2023-11-18T04:04:57.806Z,5.35
2023-11-18T04:07:25.113Z,5.34
2023-11-18T04:09:52.522Z,5.35
2023-11-18T04:12:20.214Z,5.34
2023-11-18T04:14:47.300Z,5.35
2023-11-18T04:17:14.543Z,5.37
2023-11-18T04:19:42.630Z,5.40
2023-11-18T04:22:10.680Z,5.42
2023-11-18T04:24:37.706Z,5.43
2023-11-18T04:27:05.088Z,5.44
2023-11-18T04:29:32.367Z,5.48
2023-11-18T04:32:01.138Z,5.51
2023-11-18T04:34:28.510Z,5.53
2023-11-18T04:36:56.085Z,5.53
2023-11-18T04:39:23.774Z,5.55
2023-11-18T04:41:51.680Z,5.56
2023-11-18T04:44:19.051Z,5.57
2023-11-18T04:46:46.294Z,5.59
2023-11-18T04:49:13.736Z,5.60
2023-11-18T04:51:41.126Z,5.62
2023-11-18T04:54:09.129Z,5.63
2023-11-18T04:56:36.877Z,5.64
2023-11-18T04:59:07.799Z,5.65
2023-11-18T05:01:35.679Z,5.67
2023-11-18T05:04:02.976Z,5.68
2023-11-18T05:06:30.241Z,5.71
2023-11-18T05:08:57.714Z,5.73
2023-11-18T05:11:24.861Z,5.74
2023-11-18T05:13:52.043Z,5.73
2023-11-18T05:16:19.983Z,5.76
2023-11-18T05:18:47.151Z,5.76
2023-11-18T05:21:14.435Z,5.77
2023-11-18T05:23:41.651Z,5.76
2023-11-18T05:26:10.098Z,5.77
2023-11-18T05:28:37.603Z,5.78
2023-11-18T05:31:06.318Z,5.79
2023-11-18T05:33:35.661Z,5.80
2023-11-18T05:36:06.280Z,5.80
2023-11-18T05:38:36.698Z,5.82
2023-11-18T05:41:04.996Z,5.83
2023-11-18T05:43:39.570Z,5.84
2023-11-18T05:46:15.950Z,5.84
2023-11-18T05:48:45.108Z,5.84
2023-11-18T05:51:12.787Z,5.85
2023-11-18T05:53:46.873Z,5.86
2023-11-18T05:56:15.264Z,5.86
2023-11-18T05:58:44.544Z,5.88
2023-11-18T06:01:12.846Z,5.89
2023-11-18T06:03:41.192Z,5.89
2023-11-18T06:06:15.165Z,5.90
2023-11-18T06:08:43.104Z,5.91
2023-11-18T06:11:15.352Z,5.92
2023-11-18T06:13:53.522Z,5.92
2023-11-18T06:16:23.688Z,5.93
2023-11-18T06:18:54.317Z,5.93
2023-11-18T06:21:29.640Z,5.94
2023-11-18T06:23:57.287Z,5.96
2023-11-18T06:26:28.309Z,5.97
2023-11-18T06:28:57.066Z,5.97
2023-11-18T06:31:25.294Z,5.99
2023-11-18T06:33:53.447Z,6.00
2023-11-18T06:36:24.661Z,6.02
2023-11-18T06:38:54.064Z,6.02
2023-11-18T06:41:27.618Z,6.04
2023-11-18T06:44:00.777Z,6.05
2023-11-18T06:46:35.698Z,6.07
2023-11-18T06:49:08.208Z,6.07
2023-11-18T06:51:39.559Z,6.07
2023-11-18T06:54:11.483Z,6.08
2023-11-18T06:56:45.294Z,6.09
2023-11-18T06:59:14.812Z,6.10
2023-11-18T07:01:46.544Z,6.11
2023-11-18T07:04:15.910Z,6.09
2023-11-18T07:06:44.409Z,6.11
2023-11-18T07:09:14.897Z,6.13
2023-11-18T07:11:43.173Z,6.16
2023-11-18T07:14:16.244Z,6.17
2023-11-18T07:16:44.338Z,6.18
2023-11-18T07:19:18.867Z,6.20
2023-11-18T07:21:46.009Z,6.20
2023-11-18T07:24:13.487Z,6.24
2023-11-18T07:26:40.657Z,6.25
2023-11-18T07:29:10.880Z,6.28
2023-11-18T07:31:38.162Z,6.29
2023-11-18T07:34:06.961Z,6.33
2023-11-18T07:36:35.263Z,6.35
2023-11-18T07:39:04.933Z,6.40
2023-11-18T07:41:35.205Z,6.44
2023-11-18T07:44:03.111Z,6.46
2023-11-18T07:46:32.524Z,6.50
2023-11-18T07:49:02.726Z,6.53
2023-11-18T07:51:30.207Z,6.57
2023-11-18T07:53:57.852Z,6.63
2023-11-18T07:56:24.924Z,6.75
2023-11-18T07:58:53.517Z,6.84
2023-11-18T08:01:22.431Z,6.85
2023-11-18T08:03:52.101Z,6.85
2023-11-18T08:06:19.648Z,6.84
2023-11-18T08:08:48.976Z,6.83
2023-11-18T08:11:16.152Z,6.85
2023-11-18T08:13:44.644Z,6.86
2023-11-18T08:16:14.095Z,6.87
2023-11-18T08:18:41.916Z,6.92
2023-11-18T08:21:09.121Z,6.93
2023-11-18T08:23:37.224Z,6.98
2023-11-18T08:26:06.677Z,7.00
2023-11-18T08:28:34.108Z,7.02
2023-11-18T08:31:02.041Z,7.04
2023-11-18T08:33:30.201Z,7.04
2023-11-18T08:35:57.942Z,7.11
2023-11-18T08:38:25.497Z,7.12
2023-11-18T08:40:53.038Z,7.15
2023-11-18T08:43:22.342Z,7.14
2023-11-18T08:45:51.564Z,7.17
2023-11-18T08:48:19.658Z,7.16
2023-11-18T08:50:48.102Z,7.16
2023-11-18T08:53:19.239Z,7.19
2023-11-18T08:55:52.745Z,7.21
2023-11-18T08:58:20.803Z,7.24
2023-11-18T09:00:56.029Z,7.26
2023-11-18T09:03:26.321Z,7.25
2023-11-18T09:05:59.789Z,7.26
2023-11-18T09:08:36.120Z,7.24
2023-11-18T09:11:09.204Z,7.26
2023-11-18T09:13:37.098Z,7.28
2023-11-18T09:16:10.355Z,7.32
2023-11-18T09:18:43.704Z,7.37
2023-11-18T09:21:16.865Z,7.40
2023-11-18T09:23:45.866Z,7.42
2023-11-18T09:26:13.068Z,7.45
2023-11-18T09:28:40.184Z,7.48
2023-11-18T09:31:12.508Z,7.53
2023-11-18T09:33:46.229Z,7.59
2023-11-18T09:36:13.726Z,7.64
2023-11-18T09:38:42.427Z,7.69
2023-11-18T09:41:14.502Z,7.73
2023-11-18T09:43:47.428Z,7.74
2023-11-18T09:46:16.678Z,7.76
2023-11-18T09:48:51.010Z,7.80
2023-11-18T09:51:23.907Z,7.83
2023-11-18T09:53:54.098Z,7.86
2023-11-18T09:56:58.526Z,7.90
2023-11-18T09:59:45.788Z,7.94
2023-11-18T10:02:15.185Z,8.00
2023-11-18T10:04:43.457Z,8.07
2023-11-18T10:07:12.555Z,8.16
2023-11-18T10:09:40.693Z,8.24
2023-11-18T10:12:13.639Z,8.29
2023-11-18T10:14:45.145Z,8.31
2023-11-18T10:17:15.922Z,8.36
2023-11-18T10:20:14.084Z,8.38
2023-11-18T10:22:42.007Z,8.39
2023-11-18T10:25:09.366Z,8.39
2023-11-18T10:27:36.471Z,8.39
2023-11-18T10:30:20.314Z,8.42
2023-11-18T10:33:09.169Z,8.50
2023-11-18T10:35:37.261Z,8.58
2023-11-18T10:38:07.796Z,8.67
2023-11-18T10:40:38.601Z,8.79
2023-11-18T10:43:11.390Z,8.81
2023-11-18T10:45:45.135Z,8.83
2023-11-18T10:48:17.678Z,8.83
2023-11-18T10:50:51.147Z,8.90
2023-11-18T10:53:20.070Z,8.97
2023-11-18T10:55:47.532Z,9.04
2023-11-18T10:58:15.675Z,9.10
2023-11-18T11:01:01.623Z,9.11
2023-11-18T11:03:34.451Z,9.03
2023-11-18T11:06:05.623Z,9.00
2023-11-18T11:08:41.706Z,8.98
2023-11-18T11:11:11.116Z,8.96
2023-11-18T11:13:39.111Z,8.99
2023-11-18T11:16:11.739Z,8.99
2023-11-18T11:18:46.536Z,8.98
2023-11-18T11:21:29.298Z,8.99
2023-11-18T11:24:07.180Z,8.98
2023-11-18T11:27:05.631Z,9.02
2023-11-18T11:29:44.343Z,9.05
2023-11-18T11:32:25.982Z,9.11
2023-11-18T11:34:58.651Z,9.12
2023-11-18T11:37:28.434Z,9.15
2023-11-18T11:39:59.725Z,9.14
2023-11-18T11:42:28.529Z,9.12
2023-11-18T11:44:57.041Z,9.09
2023-11-18T11:47:29.281Z,9.07
2023-11-18T11:50:11.612Z,9.01
2023-11-18T11:52:49.077Z,8.97
2023-11-18T11:55:39.779Z,8.92
2023-11-18T11:58:27.393Z,8.94
2023-11-18T12:00:55.557Z,8.96
2023-11-18T12:03:23.989Z,8.96
2023-11-18T12:05:56.937Z,8.97
2023-11-18T12:08:24.736Z,8.97
2023-11-18T12:10:57.523Z,8.95
2023-11-18T12:13:27.546Z,8.95
2023-11-18T12:16:07.089Z,8.97
2023-11-18T12:18:37.853Z,8.94
2023-11-18T12:21:05.870Z,8.95
2023-11-18T12:23:36.080Z,8.94
2023-11-18T12:26:26.193Z,8.97
2023-11-18T12:28:55.005Z,8.96
2023-11-18T12:31:41.900Z,8.95
2023-11-18T12:34:10.279Z,8.88
2023-11-18T12:37:08.920Z,8.84
2023-11-18T12:40:14.562Z,8.84
2023-11-18T12:43:06.101Z,8.82
2023-11-18T12:46:28.809Z,8.81
2023-11-18T12:49:01.129Z,8.87
2023-11-18T12:51:28.645Z,8.91
2023-11-18T12:53:57.733Z,8.93
2023-11-18T12:56:25.238Z,8.96
2023-11-18T12:58:52.970Z,8.96
2023-11-18T13:01:20.561Z,8.95
2023-11-18T13:03:48.276Z,8.93
2023-11-18T13:06:16.232Z,8.92
2023-11-18T13:08:43.848Z,8.95
2023-11-18T13:11:17.599Z,8.92
2023-11-18T13:13:45.024Z,8.89
2023-11-18T13:16:15.909Z,8.88
2023-11-18T13:18:50.518Z,8.93
2023-11-18T13:21:19.986Z,8.96
2023-11-18T13:23:53.999Z,8.95
2023-11-18T13:26:22.229Z,8.95
2023-11-18T13:28:50.466Z,8.95
2023-11-18T13:31:18.754Z,8.96
2023-11-18T13:33:49.500Z,8.96
2023-11-18T13:36:17.024Z,8.95
2023-11-18T13:38:45.260Z,8.94
2023-11-18T13:41:14.494Z,8.95
2023-11-18T13:43:51.204Z,8.96
2023-11-18T13:46:22.952Z,8.93
2023-11-18T13:48:50.488Z,8.92
2023-11-18T13:51:20.606Z,8.89
2023-11-18T13:53:48.943Z,8.87
2023-11-18T13:56:16.942Z,8.85
2023-11-18T13:58:46.840Z,8.84
2023-11-18T14:01:14.073Z,8.84
2023-11-18T14:03:44.747Z,8.81
2023-11-18T14:06:12.192Z,8.83
2023-11-18T14:08:40.235Z,8.83
2023-11-18T14:11:15.172Z,8.82
2023-11-18T14:13:45.678Z,8.85
2023-11-18T14:16:13.993Z,8.84
2023-11-18T14:18:43.155Z,8.86
2023-11-18T14:21:11.055Z,8.86
2023-11-18T14:23:39.196Z,8.87
2023-11-18T14:26:09.054Z,8.88
2023-11-18T14:28:36.493Z,8.90
2023-11-18T14:31:05.593Z,8.92
2023-11-18T14:33:35.743Z,8.90
2023-11-18T14:36:03.229Z,8.90
2023-11-18T14:38:32.026Z,8.91
2023-11-18T14:40:59.914Z,8.91
2023-11-18T14:43:27.377Z,8.91
2023-11-18T14:45:54.616Z,8.92
2023-11-18T14:48:21.654Z,8.92
2023-11-18T14:50:49.226Z,8.92
2023-11-18T14:53:16.317Z,8.90
2023-11-18T14:55:44.631Z,8.89
2023-11-18T14:58:13.221Z,8.91
2023-11-18T15:00:40.888Z,8.90
2023-11-18T15:03:08.512Z,8.93
2023-11-18T15:05:36.153Z,8.93
2023-11-18T15:08:03.684Z,8.95
2023-11-18T15:10:30.838Z,8.95
2023-11-18T15:13:01.735Z,8.93
2023-11-18T15:15:35.965Z,8.93
2023-11-18T15:18:10.254Z,8.92
2023-11-18T15:20:38.508Z,8.93
2023-11-18T15:23:05.954Z,8.94
2023-11-18T15:25:33.415Z,8.95
2023-11-18T15:28:01.725Z,8.95
2023-11-18T15:30:30.309Z,8.96
2023-11-18T15:32:57.814Z,8.98
2023-11-18T15:35:25.102Z,8.97
2023-11-18T15:37:53.367Z,8.98
2023-11-18T15:40:20.827Z,8.97
2023-11-18T15:42:52.339Z,8.99
2023-11-18T15:45:27.778Z,8.99
2023-11-18T15:47:55.514Z,9.02
2023-11-18T15:50:22.968Z,9.02
2023-11-18T15:52:53.266Z,9.06
2023-11-18T15:55:22.342Z,9.06
2023-11-18T15:57:54.540Z,9.07
2023-11-18T16:00:26.142Z,9.09
2023-11-18T16:03:01.878Z,9.10
2023-11-18T16:05:35.926Z,9.13
2023-11-18T16:08:05.688Z,9.13
2023-11-18T16:10:33.608Z,9.15
2023-11-18T16:13:02.291Z,9.16
2023-11-18T16:15:31.521Z,9.23
2023-11-18T16:18:00.623Z,9.21
2023-11-18T16:20:34.604Z,9.27
2023-11-18T16:23:06.537Z,9.28
2023-11-18T16:25:37.539Z,9.28
2023-11-18T16:28:05.765Z,9.29
2023-11-18T16:30:34.035Z,9.30
2023-11-18T16:33:03.012Z,9.30
2023-11-18T16:35:31.303Z,9.33
2023-11-18T16:38:01.569Z,9.35
2023-11-18T16:40:29.845Z,9.37
2023-11-18T16:42:59.986Z,9.38
2023-11-18T16:45:28.106Z,9.39
2023-11-18T16:47:55.999Z,9.42
2023-11-18T16:50:25.924Z,9.43
2023-11-18T16:52:55.004Z,9.46
2023-11-18T16:55:22.882Z,9.47
2023-11-18T16:57:54.167Z,9.51
2023-11-18T17:00:26.547Z,9.54
2023-11-18T17:02:58.058Z,9.56
2023-11-18T17:05:31.221Z,9.57
2023-11-18T17:08:00.375Z,9.62
2023-11-18T17:10:28.240Z,9.63
2023-11-18T17:12:55.844Z,9.66
2023-11-18T17:15:23.144Z,9.69
2023-11-18T17:17:55.066Z,9.73
2023-11-18T17:20:22.877Z,9.75
2023-11-18T17:22:50.104Z,9.76
2023-11-18T17:25:18.123Z,9.80
2023-11-18T17:27:47.000Z,9.84
2023-11-18T17:30:17.437Z,9.86
2023-11-18T17:32:46.830Z,9.91
2023-11-18T17:35:17.808Z,9.94
2023-11-18T17:37:47.612Z,9.98
2023-11-18T17:40:17.097Z,10.00
2023-11-18T17:42:46.272Z,10.03
2023-11-18T17:45:14.581Z,10.07
2023-11-18T17:47:44.135Z,10.10
2023-11-18T17:50:18.577Z,10.12
2023-11-18T17:52:53.393Z,10.16
2023-11-18T17:55:20.514Z,10.20
2023-11-18T17:57:47.985Z,10.23
2023-11-18T18:00:24.633Z,10.26
2023-11-18T18:02:53.227Z,10.29
2023-11-18T18:05:21.514Z,10.31
2023-11-18T18:07:49.037Z,10.32
2023-11-18T18:10:17.011Z,10.35
2023-11-18T18:12:47.845Z,10.37
2023-11-18T18:15:15.245Z,10.38
2023-11-18T18:17:42.497Z,10.40
2023-11-18T18:20:11.093Z,10.41
2023-11-18T18:22:40.116Z,10.43
2023-11-18T18:25:08.472Z,10.45
2023-11-18T18:27:35.646Z,10.47
2023-11-18T18:30:03.939Z,10.50
2023-11-18T18:32:31.476Z,10.51
2023-11-18T18:34:59.492Z,10.52
2023-11-18T18:37:27.695Z,10.55
2023-11-18T18:39:57.117Z,10.56
2023-11-18T18:42:25.615Z,10.59
2023-11-18T18:44:55.576Z,10.60
2023-11-18T18:47:23.391Z,10.62
2023-11-18T18:49:51.108Z,10.64
2023-11-18T18:52:18.296Z,10.66
2023-11-18T18:54:46.385Z,10.67
2023-11-18T18:57:13.915Z,10.69
2023-11-18T18:59:42.525Z,10.73
2023-11-18T19:02:11.133Z,10.74
2023-11-18T19:04:38.434Z,10.75
2023-11-18T19:07:05.617Z,10.77
2023-11-18T19:09:33.094Z,10.79
2023-11-18T19:12:00.330Z,10.81
2023-11-18T19:14:27.652Z,10.82
2023-11-18T19:16:54.749Z,10.82
2023-11-18T19:19:22.269Z,10.84
2023-11-18T19:21:52.519Z,10.86
2023-11-18T19:24:20.817Z,10.88
2023-11-18T19:26:49.193Z,10.91
2023-11-18T19:29:16.634Z,10.93
2023-11-18T19:31:43.842Z,10.95
2023-11-18T19:34:11.603Z,10.97
2023-11-18T19:36:39.216Z,11.00
2023-11-18T19:39:08.819Z,11.03
2023-11-18T19:41:35.946Z,11.04
2023-11-18T19:44:05.461Z,11.07
2023-11-18T19:46:32.938Z,11.09
2023-11-18T19:49:01.504Z,11.11
2023-11-18T19:51:28.704Z,11.12
2023-11-18T19:53:55.772Z,11.15
2023-11-18T19:56:24.409Z,11.16
2023-11-18T19:58:51.694Z,11.17
2023-11-18T20:01:19.646Z,11.19
2023-11-18T20:03:47.943Z,11.21
2023-11-18T20:06:15.282Z,11.24
2023-11-18T20:08:42.655Z,11.26
2023-11-18T20:11:13.244Z,11.28
2023-11-18T20:13:40.743Z,11.30
2023-11-18T20:16:10.553Z,11.34
2023-11-18T20:18:38.610Z,11.35
2023-11-18T20:21:06.722Z,11.37
2023-11-18T20:23:34.143Z,11.39
2023-11-18T20:26:01.779Z,11.41
2023-11-18T20:28:29.144Z,11.41
2023-11-18T20:30:56.151Z,11.45
2023-11-18T20:33:23.386Z,11.47
2023-11-18T20:35:50.757Z,11.49
2023-11-18T20:38:18.167Z,11.51
2023-11-18T20:40:45.778Z,11.53
2023-11-18T20:43:12.853Z,11.54
2023-11-18T20:45:41.452Z,11.58
2023-11-18T20:48:09.322Z,11.59
2023-11-18T20:50:37.160Z,11.62
2023-11-18T20:53:05.536Z,11.62
2023-11-18T20:55:33.239Z,11.66
2023-11-18T20:58:03.163Z,11.68
2023-11-18T21:00:31.568Z,11.69
2023-11-18T21:02:59.096Z,11.72
2023-11-18T21:05:26.626Z,11.74
2023-11-18T21:07:54.036Z,11.75
2023-11-18T21:10:21.543Z,11.79
2023-11-18T21:12:49.248Z,11.81
2023-11-18T21:15:17.853Z,11.82
2023-11-18T21:17:45.103Z,11.86
2023-11-18T21:20:14.210Z,11.88
2023-11-18T21:22:43.161Z,11.91
2023-11-18T21:25:13.493Z,11.93
2023-11-18T21:27:41.113Z,11.95
2023-11-18T21:30:11.752Z,11.98
2023-11-18T21:32:48.664Z,12.00
2023-11-18T21:35:21.435Z,12.02
2023-11-18T21:37:49.049Z,12.03
2023-11-18T21:40:16.111Z,12.05
2023-11-18T21:42:47.525Z,12.09
2023-11-18T21:45:17.404Z,12.11
2023-11-18T21:47:46.400Z,12.14
2023-11-18T21:50:17.574Z,12.16
2023-11-18T21:52:45.425Z,12.18
2023-11-18T21:55:14.336Z,12.20
2023-11-18T21:57:42.993Z,12.22
2023-11-18T22:00:17.826Z,12.26
2023-11-18T22:02:49.419Z,12.27
2023-11-18T22:05:19.842Z,12.30
2023-11-18T22:07:47.610Z,12.32
2023-11-18T22:10:17.895Z,12.34
2023-11-18T22:12:45.266Z,12.36
2023-11-18T22:15:18.272Z,12.37
2023-11-18T22:17:46.572Z,12.42
2023-11-18T22:20:16.076Z,12.43
2023-11-18T22:22:43.851Z,12.46
2023-11-18T22:25:11.468Z,12.48
2023-11-18T22:27:41.575Z,12.51
2023-11-18T22:30:13.448Z,12.54
2023-11-18T22:32:41.592Z,12.55
2023-11-18T22:35:10.151Z,12.59
2023-11-18T22:37:37.342Z,12.61
2023-11-18T22:40:10.831Z,12.66
2023-11-18T22:42:40.519Z,12.70
2023-11-18T22:45:17.309Z,12.73
2023-11-18T22:47:53.291Z,12.78
2023-11-18T22:50:24.659Z,12.80
2023-11-18T22:52:54.331Z,12.83
2023-11-18T22:55:21.489Z,12.84
2023-11-18T22:57:48.705Z,12.87
2023-11-18T23:00:33.172Z,12.89
2023-11-18T23:03:01.284Z,12.92
2023-11-18T23:05:28.605Z,12.94
2023-11-18T23:07:59.214Z,12.95
2023-11-18T23:10:26.858Z,12.97
2023-11-18T23:12:56.066Z,13.01
2023-11-18T23:15:25.812Z,13.03
2023-11-18T23:17:53.506Z,13.04
2023-11-18T23:20:22.378Z,13.06
2023-11-18T23:22:51.707Z,13.07
2023-11-18T23:25:23.975Z,13.08
2023-11-18T23:28:01.016Z,13.10
2023-11-18T23:30:29.624Z,13.11
2023-11-18T23:32:57.039Z,13.15
2023-11-18T23:35:24.109Z,13.17
2023-11-18T23:37:55.362Z,13.18
2023-11-18T23:40:24.010Z,13.19
2023-11-18T23:42:52.095Z,13.22
2023-11-18T23:45:20.497Z,13.24
2023-11-18T23:47:52.345Z,13.27
2023-11-18T23:50:21.075Z,13.29
2023-11-18T23:52:48.660Z,13.30
2023-11-18T23:55:16.162Z,13.30
2023-11-18T23:57:44.094Z,13.31
